Latest Weather Observations for Parawa West

IDS60901

Issued at 11:01 pm CST Sunday 26 June 2016 (issued every 10 minutes, with the page automatically refreshed every 10 minutes)

About weather observations | Map of Adelaide area stations | Latest observations for Adelaide area | Other Formats
Station Details ID: 023875 Name: SECOND VALLEY FOREST AWS Lat: -35.57 Lon: 138.29 Height: 341.0 m
Data from the previous 72 hours. | See also: Recent months at Parawa West
Date/Time
CST
Temp
°C
App
Temp
°C
Dew
Point
°C
Rel
Hum
%
Delta-T
°C
Wind Press
QNH
hPa
Press
MSL
hPa
Rain since
9am
mm
Dir  Spd
km/h
Gust
km/h
Spd
kts
Gust
kts
26/11:00pm 9.1 6.9 8.0 93 0.5 NW 9 17 5 9 1015.7 1015.9 1.8
26/10:30pm 9.3 5.8 7.3 87 1.0 NNW 15 24 8 13 1015.6 1015.8 0.4
26/10:00pm 9.4 5.8 6.8 84 1.2 NNW 15 24 8 13 1015.5 1015.7 0.4
26/09:30pm 9.4 6.2 7.0 85 1.1 NNW 13 20 7 11 1015.5 1015.7 0.4
26/09:00pm 9.3 5.7 6.7 84 1.2 NNW 15 26 8 14 1015.5 1015.7 0.4
26/08:30pm 9.0 5.7 6.6 85 1.1 NNW 13 20 7 11 1015.5 1015.7 0.4
26/08:00pm 9.1 5.8 6.4 83 1.3 NNW 13 20 7 11 1015.4 1015.6 0.4
26/07:30pm 8.7 5.4 6.2 84 1.2 NNW 13 17 7 9 1015.2 1015.4 0.4
26/07:00pm 8.5 5.1 5.8 83 1.2 NNW 13 20 7 11 1015.1 1015.3 0.4
26/06:30pm 8.7 4.9 5.8 82 1.3 NNW 15 20 8 11 1015.1 1015.3 0.4
26/06:00pm 8.6 5.2 5.7 82 1.3 NNW 13 19 7 10 1014.9 1015.1 0.4
26/05:30pm 8.7 4.8 5.4 80 1.5 NNW 15 20 8 11 1014.5 1014.6 0.4
26/05:00pm 8.9 4.3 5.5 79 1.6 NW 19 28 10 15 1014.4 1014.5 0.4
26/04:30pm 9.2 4.6 5.4 77 1.8 NW 19 26 10 14 1014.2 1014.3 0.4
26/04:00pm 9.1 4.5 5.7 79 1.6 NW 19 30 10 16 1014.2 1014.3 0.4
26/03:30pm 9.0 5.2 5.6 79 1.6 NW 15 30 8 16 1013.9 1014.1 0.4
26/03:00pm 9.3 5.1 5.7 78 1.7 NW 17 24 9 13 1014.0 1014.2 0.0
26/02:30pm 9.7 5.5 5.9 77 1.8 NW 17 30 9 16 1014.3 1014.4 0.0
26/02:00pm 9.8 5.6 5.8 76 1.9 NW 17 24 9 13 1014.5 1014.6 0.0
26/01:30pm 9.7 5.1 5.5 75 1.9 NW 19 30 10 16 1014.6 1014.7 0.0
26/01:00pm 9.8 5.0 4.8 71 2.3 NNW 19 33 10 18 1014.9 1015.1 0.0
26/12:30pm 9.5 4.6 4.9 73 2.1 NW 20 32 11 17 1015.2 1015.4 0.0
26/12:00pm 9.6 4.5 4.2 69 2.4 NW 20 32 11 17 1015.5 1015.7 0.0
26/11:30am 9.7 4.7 4.7 71 2.3 NW 20 33 11 18 1016.1 1016.3 0.0
26/11:00am 9.0 5.4 5.0 76 1.8 NW 13 24 7 13 1016.5 1016.7 0.0
26/10:30am 9.3 4.6 5.1 75 1.9 NW 19 33 10 18 1016.7 1016.9 0.0
26/10:00am 8.9 4.4 4.1 72 2.1 NNW 17 28 9 15 1016.7 1016.9 0.0
26/09:30am 8.9 3.8 3.3 68 2.5 NW 19 30 10 16 1016.7 1016.9 0.0
26/09:00am 9.0 5.5 3.4 68 2.5 NNW 11 22 6 12 1016.6 1016.8 0.4
26/08:30am 8.7 4.8 3.3 69 2.4 NNW 13 24 7 13 1016.6 1016.8 0.4
26/08:00am 8.3 5.1 2.8 68 2.4 NNW 9 15 5 8 1016.5 1016.7 0.4
26/07:30am 8.5 3.8 2.9 68 2.4 NNW 17 28 9 15 1016.5 1016.7 0.4
26/07:00am 9.0 3.5 2.1 62 2.9 NNW 20 33 11 18 1016.3 1016.5 0.4
26/06:30am 8.8 3.6 2.4 64 2.7 NNW 19 32 10 17 1016.3 1016.5 0.4
26/06:00am 8.9 4.5 2.5 64 2.8 NNW 15 30 8 16 1016.4 1016.6 0.4
26/05:30am 8.8 4.1 3.0 67 2.5 NNW 17 28 9 15 1016.5 1016.7 0.4
26/05:00am 8.8 5.1 4.4 74 2.0 NNW 13 20 7 11 1016.7 1016.9 0.4
26/04:30am 8.8 4.3 4.2 73 2.1 NNW 17 24 9 13 1017.0 1017.2 0.4
26/04:00am 8.8 4.5 3.2 68 2.4 NNW 15 22 8 12 1017.1 1017.3 0.4
26/03:30am 8.9 3.9 3.5 69 2.4 NNW 19 33 10 18 1017.4 1017.6 0.4
26/03:00am 8.9 3.8 2.9 66 2.6 NNW 19 26 10 14 1017.5 1017.7 0.4
26/02:30am 8.8 4.5 3.2 68 2.4 NNW 15 26 8 14 1017.7 1017.9 0.4
26/02:00am 8.7 3.9 2.7 66 2.6 NNW 17 32 9 17 1018.0 1018.2 0.4
26/01:30am 8.8 4.1 3.0 67 2.5 NNW 17 24 9 13 1018.2 1018.4 0.4
26/01:00am 8.7 4.5 3.7 71 2.2 NNW 15 26 8 14 1018.3 1018.5 0.4
26/12:30am 8.7 5.0 4.3 74 2.0 NNW 13 22 7 12 1018.6 1018.8 0.4
26/12:00am 8.7 4.7 5.1 78 1.6 NW 15 22 8 12 1018.6 1018.8 0.4
 
Date/Time
CST
Temp
°C
App
Temp
°C
Dew
Point
°C
Rel
Hum
%
Delta-T
°C
Wind Press
QNH
hPa
Press
MSL
hPa
Rain since
9am
mm
Dir  Spd
km/h
Gust
km/h
Spd
kts
Gust
kts
25/11:30pm 8.8 6.3 4.8 76 1.8 NW 7 15 4 8 1018.9 1019.1 0.4
25/11:00pm 8.5 6.7 5.6 82 1.3 NW 4 7 2 4 1019.0 1019.2 0.4
25/10:30pm 8.4 6.2 6.2 86 1.0 NNW 7 13 4 7 1019.3 1019.5 0.4
25/10:00pm 7.5 6.6 6.1 91 0.6 CALM 0 2 0 1 1019.6 1019.8 0.4
25/09:30pm 7.8 7.0 6.3 90 0.7 CALM 0 0 0 0 1019.5 1019.7 0.4
25/09:00pm 8.0 6.5 6.6 91 0.7 NNW 4 6 2 3 1019.9 1020.2 0.4
25/08:30pm 8.0 6.2 7.2 95 0.4 NNW 6 9 3 5 1020.0 1020.3 0.4
25/08:00pm 7.9 6.5 7.1 95 0.4 NNW 4 7 2 4 1020.7 1020.9 0.4
25/07:30pm 7.4 3.7 6.5 94 0.4 NNW 15 22 8 12 1020.9 1021.1 0.4
25/07:00pm 8.0 5.4 7.6 97 0.2 NNW 11 20 6 11 1020.9 1021.1 0.2
25/06:30pm 8.4 7.1 7.6 95 0.4 NNW 4 11 2 6 1020.6 1020.8 0.2
25/06:00pm 8.2 6.6 6.2 87 0.9 NNW 4 7 2 4 1020.6 1020.8 0.2
25/05:30pm 7.3 4.8 4.8 84 1.1 NW 7 9 4 5 1020.6 1020.8 0.2
25/05:00pm 7.4 5.8 4.4 81 1.3 N 2 7 1 4 1020.5 1020.7 0.2
25/04:30pm 7.8 5.9 4.7 81 1.4 N 4 6 2 3 1020.7 1020.9 0.2
25/04:00pm 8.0 6.6 5.3 83 1.2 W 2 7 1 4 1020.9 1021.1 0.2
25/03:30pm 8.9 6.7 6.0 82 1.3 NNW 7 17 4 9 1021.0 1021.2 0.2
25/03:00pm 9.4 7.6 7.2 86 1.1 NNW 6 13 3 7 1021.2 1021.4 0.2
25/02:30pm 8.7 7.5 7.9 95 0.4 NW 4 9 2 5 1021.3 1021.5 0.2
25/02:00pm 8.7 7.1 7.9 95 0.4 N 6 15 3 8 1021.5 1021.7 0.2
25/01:30pm 8.6 7.4 8.0 96 0.3 NNE 4 11 2 6 1021.7 1021.9 0.2
25/01:00pm 8.5 7.6 7.9 96 0.3 NE 2 6 1 3 1022.1 1022.3 0.2
25/12:30pm 8.5 7.3 7.9 96 0.3 NW 4 11 2 6 1022.6 1022.9 0.2
25/12:00pm 8.4 6.7 7.6 95 0.4 NNW 6 9 3 5 1023.2 1023.5 0.0
25/11:30am 8.9 7.8 8.5 97 0.2 NNW 4 9 2 5 1023.6 1023.8 0.0
25/11:00am 8.3 6.7 7.9 97 0.2 NNW 6 11 3 6 1023.7 1023.9 0.0
25/10:30am 8.6 7.5 8.5 99 0.0 NW 4 9 2 5 1023.9 1024.1 0.0
25/10:00am 7.5 6.1 7.4 99 0.0 NNW 4 9 2 5 1024.0 1024.2 0.0
25/09:30am 7.3 5.8 7.0 98 0.1 WNW 4 7 2 4 1023.8 1024.0 0.0
25/09:00am 7.0 5.9 6.7 98 0.1 N 2 7 1 4 1023.7 1023.9 2.0
25/08:30am 6.1 4.8 5.8 98 0.1 NNW 2 6 1 3 1023.6 1023.8 2.0
25/08:00am 5.8 4.0 5.5 98 0.1 N 4 9 2 5 1023.6 1023.8 2.0
25/07:30am 5.1 3.5 4.5 96 0.3 N 2 6 1 3 1023.3 1023.6 2.0
25/07:00am 5.4 3.5 4.8 96 0.3 N 4 6 2 3 1023.1 1023.4 2.0
25/06:30am 6.3 4.2 5.6 95 0.3 NNW 6 7 3 4 1022.8 1023.1 2.0
25/06:00am 6.0 4.1 5.0 93 0.4 W 4 6 2 3 1022.7 1023.0 2.0
25/05:30am 6.3 3.9 4.5 88 0.8 W 6 9 3 5 1022.6 1022.9 2.0
25/05:00am 6.7 4.4 4.7 87 0.9 W 6 7 3 4 1022.4 1022.7 2.0
25/04:30am 6.6 4.3 4.6 87 0.9 W 6 6 3 3 1022.5 1022.8 2.0
25/04:00am 6.6 4.2 4.4 86 1.0 W 6 7 3 4 1022.3 1022.6 2.0
25/03:30am 6.8 4.5 4.6 86 1.0 W 6 7 3 4 1022.3 1022.6 2.0
25/03:00am 6.9 5.0 4.9 87 0.9 W 4 4 2 2 1022.2 1022.5 2.0
25/02:30am 6.8 4.6 5.4 91 0.6 W 6 6 3 3 1022.3 1022.6 2.0
25/02:00am 6.5 4.3 5.3 92 0.5 W 6 6 3 3 1022.2 1022.5 2.0
25/01:30am 6.7 4.2 5.0 89 0.8 W 7 13 4 7 1022.0 1022.2 2.0
25/01:00am 7.4 5.0 5.2 86 1.0 WSW 7 15 4 8 1022.0 1022.2 2.0
25/12:30am 6.9 4.5 5.1 88 0.8 WSW 7 9 4 5 1022.0 1022.2 1.8
25/12:00am 7.0 4.6 5.3 89 0.8 WSW 7 9 4 5 1022.0 1022.2 1.8
 
Date/Time
CST
Temp
°C
App
Temp
°C
Dew
Point
°C
Rel
Hum
%
Delta-T
°C
Wind Press
QNH
hPa
Press
MSL
hPa
Rain since
9am
mm
Dir  Spd
km/h
Gust
km/h
Spd
kts
Gust
kts
24/11:30pm 6.9 4.5 5.1 88 0.8 WSW 7 11 4 6 1022.0 1022.2 1.8
24/11:00pm 7.0 4.5 4.8 86 1.0 WSW 7 11 4 6 1022.0 1022.2 1.8
24/10:30pm 6.9 4.1 5.2 89 0.8 W 9 11 5 6 1022.0 1022.2 1.8
24/10:00pm 6.8 4.3 4.8 87 0.9 WSW 7 11 4 6 1021.9 1022.1 1.8
24/09:30pm 7.1 4.2 4.8 85 1.0 W 9 15 5 8 1021.8 1022.0 1.8
24/09:00pm 7.1 4.2 4.8 85 1.0 W 9 13 5 7 1021.7 1021.9 1.8
24/08:30pm 7.3 4.4 4.6 83 1.2 W 9 13 5 7 1021.6 1021.8 1.8
24/08:00pm 7.5 5.0 4.5 81 1.3 WSW 7 9 4 5 1021.2 1021.4 1.8
24/07:30pm 6.7 3.7 4.0 83 1.2 SW 9 11 5 6 1020.9 1021.1 1.8
24/07:00pm 7.1 4.6 3.9 80 1.4 SW 6 9 3 5 1020.5 1020.7 1.8
24/06:30pm 7.3 3.9 4.1 80 1.4 SW 11 17 6 9 1019.9 1020.2 1.8
24/06:00pm 7.1 4.3 3.3 77 1.6 SW 7 11 4 6 1019.4 1019.6 1.8
24/05:30pm 7.5 4.4 3.4 75 1.8 SW 9 17 5 9 1018.9 1019.1 1.8
24/05:00pm 8.1 4.0 4.3 77 1.7 SW 15 26 8 14 1018.5 1018.7 1.8
24/04:30pm 8.1 3.9 3.9 75 1.8 SW 15 32 8 17 1018.0 1018.2 1.8
24/04:00pm 9.1 5.0 4.5 73 2.1 SW 15 26 8 14 1017.5 1017.7 1.8
24/03:30pm 9.0 3.5 4.0 71 2.2 SW 22 37 12 20 1017.0 1017.2 1.8
24/03:00pm 8.5 4.3 5.6 82 1.3 SW 17 28 9 15 1016.8 1017.0 1.8
24/02:30pm 7.6 3.4 5.7 88 0.9 SW 17 33 9 18 1016.6 1016.8 1.8
24/02:00pm 8.1 3.2 5.2 82 1.3 SW 20 33 11 18 1016.6 1016.8 1.6
24/01:30pm 8.3 4.1 5.6 83 1.2 W 17 30 9 16 1016.1 1016.3 1.4
24/01:00pm 8.0 3.8 5.5 84 1.1 WSW 17 24 9 13 1016.2 1016.4 1.4
24/12:30pm 7.2 3.6 5.0 86 1.0 SW 13 24 7 13 1016.2 1016.4 1.4
24/12:00pm 7.6 2.6 3.5 75 1.8 SW 19 28 10 15 1016.1 1016.3 1.0
24/11:30am 7.1 2.3 4.9 86 1.0 WSW 19 32 10 17 1015.8 1016.0 1.0
24/11:00am 6.1 -0.6 3.8 85 1.0 SW 28 52 15 28 1015.9 1016.1 0.8
24/10:59am 6.2 -0.1 3.7 84 1.1 SW 26 52 14 28 1016.0 1016.2 0.6
24/10:58am 6.3 -0.1 3.3 81 1.3 SW 26 52 14 28 1015.9 1016.1 0.6
24/10:30am 8.0 3.1 2.0 66 2.5 WSW 17 28 9 15 1015.3 1015.5 0.0
24/10:00am 7.2 1.6 3.3 76 1.7 SW 22 39 12 21 1014.7 1014.8 0.0
24/09:30am 7.2 1.3 1.9 69 2.2 SW 22 37 12 20 1013.4 1013.6 0.0
24/09:10am 7.0 0.1 2.7 74 1.8 SW 28 50 15 27 1013.1 1013.3 0.0
24/09:00am 6.6 1.1 4.1 84 1.1 WSW 22 39 12 21 1012.8 1013.0 17.2
24/08:30am 6.2 0.6 3.5 83 1.2 WSW 22 35 12 19 1012.1 1012.2 17.2
24/08:00am 5.3 0.1 3.6 89 0.7 WSW 20 37 11 20 1011.5 1011.6 17.2
24/07:30am 6.2 0.5 2.7 78 1.5 WSW 22 44 12 24 1010.3 1010.5 17.0
24/07:00am 5.6 -0.1 2.6 81 1.3 WSW 22 39 12 21 1010.1 1010.3 17.0
24/06:30am 4.8 -0.5 3.1 89 0.7 WSW 20 30 11 16 1009.6 1009.7 17.0
24/06:00am 4.3 -1.9 2.2 86 0.9 WSW 24 37 13 20 1008.9 1009.0 17.0
24/05:36am 5.0 -2.3 2.4 83 1.1 WSW 30 50 16 27 1008.9 1009.0 16.6
24/05:30am 5.8 -0.4 2.4 79 1.4 W 24 41 13 22 1008.2 1008.3 16.4
24/05:04am 6.2 -1.2 2.1 75 1.7 W 30 48 16 26 1007.7 1007.9 16.4
24/05:00am 6.3 -1.4 2.2 75 1.7 W 32 43 17 23 1007.6 1007.8 16.4
24/04:53am 6.5 -0.4 2.6 76 1.6 W 28 56 15 30 1007.4 1007.6 16.4
24/04:30am 6.4 -0.5 2.3 75 1.7 W 28 44 15 24 1006.9 1007.0 16.4
24/04:00am 5.5 0.2 2.8 83 1.1 W 20 32 11 17 1006.5 1006.6 16.4
24/03:30am 5.6 0.2 2.4 80 1.3 WSW 20 33 11 18 1006.0 1006.1 16.4
24/03:07am 5.5 -1.5 2.0 78 1.4 W 28 48 15 26 1005.6 1005.7 16.4
24/03:00am 5.3 -1.3 2.1 80 1.3 W 26 39 14 21 1005.5 1005.6 16.4
24/02:30am 5.5 -2.0 3.5 87 0.9 WSW 32 52 17 28 1005.3 1005.4 16.4
24/02:00am 5.4 -1.6 4.2 92 0.5 W 30 52 16 28 1004.8 1005.0 16.4
24/01:48am 5.2 -1.4 4.3 94 0.4 W 28 48 15 26 1004.6 1004.7 16.0
24/01:30am 4.9 -1.0 3.7 92 0.5 WSW 24 37 13 20 1004.1 1004.2 16.0
24/01:00am 7.1 0.4 3.9 80 1.4 W 28 46 15 25 1003.8 1003.9 15.2
24/12:30am 6.7 -0.5 3.1 78 1.5 WNW 30 54 16 29 1004.0 1004.1 15.2
24/12:00am 7.0 -1.9 3.3 77 1.6 W 39 59 21 32 1003.9 1004.0 15.2
 
Date/Time
CST
Temp
°C
App
Temp
°C
Dew
Point
°C
Rel
Hum
%
Delta-T
°C
Wind Press
QNH
hPa
Press
MSL
hPa
Rain since
9am
mm
Dir  Spd
km/h
Gust
km/h
Spd
kts
Gust
kts
23/11:50pm 7.7 1.0 3.9 77 1.7 W 28 52 15 28 1003.8 1003.9 15.2
23/11:30pm 6.6 1.7 4.3 85 1.0 W 19 28 10 15 1004.0 1004.1 15.2

Latest Capital City Observations: Canberra | Sydney | Melbourne | Brisbane | Adelaide | Perth | Hobart | Darwin

Other Formats:

Comma delimited format used in spreadsheet applications
http://www.bom.gov.au/fwo/IDS60901/IDS60901.94811.axf

JavaScript Object Notation format (JSON) in row-major order
http://www.bom.gov.au/fwo/IDS60901/IDS60901.94811.json